sensor_id;sensor_type;location;lat;lon;timestamp;P1;durP1;ratioP1;P2;durP2;ratioP2
72404;SDS011;60395;52.020;113.548;2024-03-08T00:00:23;35.58;;;13.48;;
72404;SDS011;60395;52.020;113.548;2024-03-08T00:03:27;41.15;;;17.15;;
72404;SDS011;60395;52.020;113.548;2024-03-08T00:09:35;76.97;;;25.50;;
72404;SDS011;60395;52.020;113.548;2024-03-08T00:15:46;68.80;;;24.27;;
72404;SDS011;60395;52.020;113.548;2024-03-08T00:21:53;72.40;;;22.65;;
72404;SDS011;60395;52.020;113.548;2024-03-08T00:24:58;66.70;;;25.58;;
72404;SDS011;60395;52.020;113.548;2024-03-08T00:28:01;88.22;;;27.58;;
72404;SDS011;60395;52.020;113.548;2024-03-08T00:31:05;73.30;;;27.52;;
72404;SDS011;60395;52.020;113.548;2024-03-08T00:34:09;76.82;;;28.85;;
72404;SDS011;60395;52.020;113.548;2024-03-08T00:37:15;100.47;;;29.50;;
72404;SDS011;60395;52.020;113.548;2024-03-08T00:40:19;83.45;;;29.42;;
72404;SDS011;60395;52.020;113.548;2024-03-08T00:43:23;80.55;;;28.77;;
72404;SDS011;60395;52.020;113.548;2024-03-08T00:46:26;93.68;;;29.70;;
72404;SDS011;60395;52.020;113.548;2024-03-08T00:49:31;104.22;;;29.33;;
72404;SDS011;60395;52.020;113.548;2024-03-08T00:52:34;142.55;;;36.53;;
72404;SDS011;60395;52.020;113.548;2024-03-08T00:55:38;105.93;;;33.40;;
72404;SDS011;60395;52.020;113.548;2024-03-08T00:58:41;103.70;;;33.15;;
72404;SDS011;60395;52.020;113.548;2024-03-08T01:01:45;96.10;;;33.90;;
72404;SDS011;60395;52.020;113.548;2024-03-08T01:04:48;115.03;;;34.22;;
72404;SDS011;60395;52.020;113.548;2024-03-08T01:07:55;93.93;;;28.88;;
72404;SDS011;60395;52.020;113.548;2024-03-08T01:10:59;83.25;;;29.92;;
72404;SDS011;60395;52.020;113.548;2024-03-08T01:14:02;93.47;;;27.87;;
72404;SDS011;60395;52.020;113.548;2024-03-08T01:17:05;89.47;;;28.52;;
72404;SDS011;60395;52.020;113.548;2024-03-08T01:20:09;91.43;;;28.83;;
72404;SDS011;60395;52.020;113.548;2024-03-08T01:23:16;99.32;;;33.03;;
72404;SDS011;60395;52.020;113.548;2024-03-08T01:26:19;105.22;;;33.50;;
72404;SDS011;60395;52.020;113.548;2024-03-08T01:29:23;106.25;;;33.53;;
72404;SDS011;60395;52.020;113.548;2024-03-08T01:32:27;123.65;;;38.30;;
72404;SDS011;60395;52.020;113.548;2024-03-08T01:35:30;256.35;;;75.65;;
72404;SDS011;60395;52.020;113.548;2024-03-08T01:38:34;126.25;;;39.65;;
72404;SDS011;60395;52.020;113.548;2024-03-08T01:41:38;111.50;;;36.30;;
72404;SDS011;60395;52.020;113.548;2024-03-08T01:44:43;128.27;;;33.08;;
72404;SDS011;60395;52.020;113.548;2024-03-08T01:47:46;90.57;;;29.48;;
72404;SDS011;60395;52.020;113.548;2024-03-08T01:50:51;71.82;;;25.33;;
72404;SDS011;60395;52.020;113.548;2024-03-08T01:53:57;85.68;;;26.33;;
72404;SDS011;60395;52.020;113.548;2024-03-08T01:57:01;86.75;;;29.00;;
72404;SDS011;60395;52.020;113.548;2024-03-08T02:00:04;93.70;;;28.00;;
72404;SDS011;60395;52.020;113.548;2024-03-08T02:03:09;77.30;;;27.30;;
72404;SDS011;60395;52.020;113.548;2024-03-08T02:06:13;110.38;;;29.55;;
72404;SDS011;60395;52.020;113.548;2024-03-08T02:09:20;87.30;;;27.05;;
72404;SDS011;60395;52.020;113.548;2024-03-08T02:12:23;83.68;;;28.75;;
72404;SDS011;60395;52.020;113.548;2024-03-08T02:15:27;79.83;;;28.77;;
72404;SDS011;60395;52.020;113.548;2024-03-08T02:18:56;97.25;;;27.92;;
72404;SDS011;60395;52.020;113.548;2024-03-08T02:21:59;89.00;;;29.38;;
72404;SDS011;60395;52.020;113.548;2024-03-08T02:25:06;83.13;;;28.15;;
72404;SDS011;60395;52.020;113.548;2024-03-08T02:28:12;105.20;;;27.88;;
72404;SDS011;60395;52.020;113.548;2024-03-08T02:31:17;102.82;;;30.92;;
72404;SDS011;60395;52.020;113.548;2024-03-08T02:34:20;97.32;;;30.55;;
72404;SDS011;60395;52.020;113.548;2024-03-08T02:37:24;102.00;;;30.30;;
72404;SDS011;60395;52.020;113.548;2024-03-08T02:40:27;79.10;;;28.52;;
72404;SDS011;60395;52.020;113.548;2024-03-08T02:43:30;93.18;;;27.70;;
72404;SDS011;60395;52.020;113.548;2024-03-08T02:46:34;64.72;;;21.38;;
72404;SDS011;60395;52.020;113.548;2024-03-08T02:49:38;73.07;;;21.83;;
72404;SDS011;60395;52.020;113.548;2024-03-08T02:52:42;66.05;;;23.70;;
72404;SDS011;60395;52.020;113.548;2024-03-08T02:55:46;56.45;;;20.73;;
72404;SDS011;60395;52.020;113.548;2024-03-08T02:58:49;65.68;;;20.65;;
72404;SDS011;60395;52.020;113.548;2024-03-08T03:01:53;65.85;;;20.05;;
72404;SDS011;60395;52.020;113.548;2024-03-08T03:04:56;60.10;;;18.08;;
72404;SDS011;60395;52.020;113.548;2024-03-08T03:08:01;47.97;;;17.33;;
72404;SDS011;60395;52.020;113.548;2024-03-08T03:11:06;173.73;;;57.35;;
72404;SDS011;60395;52.020;113.548;2024-03-08T03:14:13;54.25;;;19.42;;
72404;SDS011;60395;52.020;113.548;2024-03-08T03:17:16;41.92;;;16.35;;
72404;SDS011;60395;52.020;113.548;2024-03-08T03:20:20;46.03;;;14.98;;
72404;SDS011;60395;52.020;113.548;2024-03-08T03:23:29;53.88;;;18.10;;
72404;SDS011;60395;52.020;113.548;2024-03-08T03:26:38;36.55;;;14.77;;
72404;SDS011;60395;52.020;113.548;2024-03-08T03:29:46;47.88;;;16.95;;
72404;SDS011;60395;52.020;113.548;2024-03-08T03:32:49;48.20;;;16.15;;
72404;SDS011;60395;52.020;113.548;2024-03-08T03:36:00;51.70;;;20.92;;
72404;SDS011;60395;52.020;113.548;2024-03-08T03:39:03;41.03;;;15.88;;
72404;SDS011;60395;52.020;113.548;2024-03-08T03:42:15;42.05;;;17.55;;
72404;SDS011;60395;52.020;113.548;2024-03-08T03:45:19;43.17;;;15.67;;
72404;SDS011;60395;52.020;113.548;2024-03-08T03:48:22;38.22;;;15.80;;
72404;SDS011;60395;52.020;113.548;2024-03-08T03:51:26;49.30;;;14.10;;
72404;SDS011;60395;52.020;113.548;2024-03-08T03:54:29;41.17;;;15.20;;
72404;SDS011;60395;52.020;113.548;2024-03-08T03:57:36;32.75;;;12.77;;
72404;SDS011;60395;52.020;113.548;2024-03-08T04:00:39;31.33;;;12.65;;
72404;SDS011;60395;52.020;113.548;2024-03-08T04:03:43;30.52;;;11.00;;
72404;SDS011;60395;52.020;113.548;2024-03-08T04:06:46;34.22;;;11.75;;
72404;SDS011;60395;52.020;113.548;2024-03-08T04:09:50;33.92;;;11.32;;
72404;SDS011;60395;52.020;113.548;2024-03-08T04:12:53;33.10;;;12.00;;
72404;SDS011;60395;52.020;113.548;2024-03-08T04:15:57;28.70;;;10.57;;
72404;SDS011;60395;52.020;113.548;2024-03-08T04:19:00;27.90;;;10.80;;
72404;SDS011;60395;52.020;113.548;2024-03-08T04:22:06;30.15;;;10.70;;
72404;SDS011;60395;52.020;113.548;2024-03-08T04:25:10;27.25;;;11.65;;
72404;SDS011;60395;52.020;113.548;2024-03-08T04:28:13;32.10;;;12.65;;
72404;SDS011;60395;52.020;113.548;2024-03-08T04:31:17;26.42;;;12.45;;
72404;SDS011;60395;52.020;113.548;2024-03-08T04:34:21;38.63;;;12.75;;
72404;SDS011;60395;52.020;113.548;2024-03-08T04:37:25;34.45;;;12.80;;
72404;SDS011;60395;52.020;113.548;2024-03-08T04:40:28;34.30;;;13.95;;
72404;SDS011;60395;52.020;113.548;2024-03-08T04:43:32;34.70;;;12.10;;
72404;SDS011;60395;52.020;113.548;2024-03-08T04:46:36;264.27;;;98.75;;
72404;SDS011;60395;52.020;113.548;2024-03-08T04:49:40;38.75;;;12.13;;
72404;SDS011;60395;52.020;113.548;2024-03-08T04:52:43;36.67;;;11.38;;
72404;SDS011;60395;52.020;113.548;2024-03-08T04:55:47;34.03;;;12.77;;
72404;SDS011;60395;52.020;113.548;2024-03-08T04:58:50;30.00;;;12.05;;
72404;SDS011;60395;52.020;113.548;2024-03-08T05:01:54;26.98;;;12.20;;
72404;SDS011;60395;52.020;113.548;2024-03-08T05:04:58;34.60;;;12.20;;
72404;SDS011;60395;52.020;113.548;2024-03-08T05:08:01;28.83;;;12.10;;
72404;SDS011;60395;52.020;113.548;2024-03-08T05:11:05;41.53;;;12.88;;
72404;SDS011;60395;52.020;113.548;2024-03-08T05:14:10;34.85;;;12.27;;
72404;SDS011;60395;52.020;113.548;2024-03-08T05:17:22;21.15;;;9.20;;
72404;SDS011;60395;52.020;113.548;2024-03-08T05:20:26;22.67;;;8.35;;
72404;SDS011;60395;52.020;113.548;2024-03-08T05:23:30;25.05;;;10.02;;
72404;SDS011;60395;52.020;113.548;2024-03-08T05:26:33;25.57;;;9.67;;
72404;SDS011;60395;52.020;113.548;2024-03-08T05:29:37;17.13;;;7.18;;
72404;SDS011;60395;52.020;113.548;2024-03-08T05:32:41;17.13;;;7.68;;
72404;SDS011;60395;52.020;113.548;2024-03-08T05:35:48;24.25;;;10.18;;
72404;SDS011;60395;52.020;113.548;2024-03-08T05:38:54;17.75;;;8.18;;
72404;SDS011;60395;52.020;113.548;2024-03-08T05:41:58;18.13;;;7.18;;
72404;SDS011;60395;52.020;113.548;2024-03-08T05:45:03;24.20;;;8.07;;
72404;SDS011;60395;52.020;113.548;2024-03-08T05:48:09;24.88;;;11.55;;
72404;SDS011;60395;52.020;113.548;2024-03-08T05:51:18;14.50;;;7.00;;
72404;SDS011;60395;52.020;113.548;2024-03-08T05:54:23;19.58;;;7.05;;
72404;SDS011;60395;52.020;113.548;2024-03-08T05:57:29;13.80;;;6.22;;
72404;SDS011;60395;52.020;113.548;2024-03-08T06:00:32;11.27;;;6.30;;
72404;SDS011;60395;52.020;113.548;2024-03-08T06:03:36;15.07;;;6.65;;
72404;SDS011;60395;52.020;113.548;2024-03-08T06:06:44;13.00;;;6.38;;
72404;SDS011;60395;52.020;113.548;2024-03-08T06:09:52;13.13;;;6.03;;
72404;SDS011;60395;52.020;113.548;2024-03-08T06:12:56;20.23;;;7.50;;
72404;SDS011;60395;52.020;113.548;2024-03-08T06:16:00;19.75;;;6.80;;
72404;SDS011;60395;52.020;113.548;2024-03-08T06:19:07;12.93;;;4.93;;
72404;SDS011;60395;52.020;113.548;2024-03-08T06:22:11;20.45;;;6.00;;
72404;SDS011;60395;52.020;113.548;2024-03-08T06:25:19;19.50;;;8.32;;
72404;SDS011;60395;52.020;113.548;2024-03-08T06:28:24;23.70;;;9.00;;
72404;SDS011;60395;52.020;113.548;2024-03-08T06:31:28;16.35;;;7.03;;
72404;SDS011;60395;52.020;113.548;2024-03-08T06:34:37;20.25;;;8.15;;
72404;SDS011;60395;52.020;113.548;2024-03-08T06:37:41;16.58;;;7.75;;
72404;SDS011;60395;52.020;113.548;2024-03-08T06:40:46;18.27;;;7.97;;
72404;SDS011;60395;52.020;113.548;2024-03-08T06:43:50;17.08;;;6.55;;
72404;SDS011;60395;52.020;113.548;2024-03-08T06:47:00;13.40;;;5.78;;
72404;SDS011;60395;52.020;113.548;2024-03-08T06:50:04;22.10;;;5.68;;
72404;SDS011;60395;52.020;113.548;2024-03-08T06:53:11;18.92;;;6.65;;
72404;SDS011;60395;52.020;113.548;2024-03-08T06:56:18;34.22;;;6.70;;
72404;SDS011;60395;52.020;113.548;2024-03-08T06:59:22;21.90;;;6.80;;
72404;SDS011;60395;52.020;113.548;2024-03-08T07:02:25;38.28;;;8.63;;
72404;SDS011;60395;52.020;113.548;2024-03-08T07:05:29;32.08;;;8.27;;
72404;SDS011;60395;52.020;113.548;2024-03-08T07:08:33;31.48;;;7.55;;
72404;SDS011;60395;52.020;113.548;2024-03-08T07:11:39;32.80;;;7.28;;
72404;SDS011;60395;52.020;113.548;2024-03-08T07:14:46;27.83;;;7.28;;
72404;SDS011;60395;52.020;113.548;2024-03-08T07:17:50;27.35;;;6.65;;
72404;SDS011;60395;52.020;113.548;2024-03-08T07:20:55;25.38;;;7.90;;
72404;SDS011;60395;52.020;113.548;2024-03-08T07:23:59;24.60;;;6.75;;
72404;SDS011;60395;52.020;113.548;2024-03-08T07:27:04;23.13;;;6.43;;
72404;SDS011;60395;52.020;113.548;2024-03-08T07:30:08;18.25;;;5.72;;
72404;SDS011;60395;52.020;113.548;2024-03-08T07:33:14;21.83;;;6.10;;
72404;SDS011;60395;52.020;113.548;2024-03-08T07:36:18;29.52;;;6.13;;
72404;SDS011;60395;52.020;113.548;2024-03-08T07:39:22;16.80;;;6.13;;
72404;SDS011;60395;52.020;113.548;2024-03-08T07:42:26;16.55;;;4.53;;
72404;SDS011;60395;52.020;113.548;2024-03-08T07:48:34;10.75;;;4.65;;
72404;SDS011;60395;52.020;113.548;2024-03-08T07:51:39;26.92;;;15.15;;
72404;SDS011;60395;52.020;113.548;2024-03-08T07:54:43;13.30;;;5.43;;
72404;SDS011;60395;52.020;113.548;2024-03-08T07:57:47;141.73;;;52.20;;
72404;SDS011;60395;52.020;113.548;2024-03-08T08:00:51;28.57;;;8.03;;
72404;SDS011;60395;52.020;113.548;2024-03-08T08:03:54;13.40;;;5.53;;
72404;SDS011;60395;52.020;113.548;2024-03-08T08:06:59;14.48;;;5.25;;
72404;SDS011;60395;52.020;113.548;2024-03-08T08:10:05;18.05;;;6.38;;
72404;SDS011;60395;52.020;113.548;2024-03-08T08:13:10;16.25;;;6.45;;
72404;SDS011;60395;52.020;113.548;2024-03-08T08:16:15;14.65;;;6.20;;
72404;SDS011;60395;52.020;113.548;2024-03-08T08:19:19;15.02;;;6.18;;
72404;SDS011;60395;52.020;113.548;2024-03-08T08:22:23;14.13;;;6.05;;
72404;SDS011;60395;52.020;113.548;2024-03-08T08:25:27;13.88;;;6.22;;
72404;SDS011;60395;52.020;113.548;2024-03-08T08:28:32;14.38;;;5.82;;
72404;SDS011;60395;52.020;113.548;2024-03-08T08:31:35;14.88;;;5.95;;
72404;SDS011;60395;52.020;113.548;2024-03-08T08:34:39;17.00;;;6.05;;
72404;SDS011;60395;52.020;113.548;2024-03-08T08:37:42;21.67;;;7.22;;
72404;SDS011;60395;52.020;113.548;2024-03-08T08:43:50;14.18;;;6.20;;
72404;SDS011;60395;52.020;113.548;2024-03-08T08:47:09;18.88;;;6.65;;
72404;SDS011;60395;52.020;113.548;2024-03-08T08:50:17;20.33;;;8.20;;
72404;SDS011;60395;52.020;113.548;2024-03-08T08:53:28;28.13;;;7.18;;
72404;SDS011;60395;52.020;113.548;2024-03-08T08:56:32;17.58;;;8.32;;
72404;SDS011;60395;52.020;113.548;2024-03-08T08:59:36;31.17;;;12.07;;
72404;SDS011;60395;52.020;113.548;2024-03-08T09:02:42;16.50;;;7.03;;
72404;SDS011;60395;52.020;113.548;2024-03-08T09:05:46;18.90;;;7.95;;
72404;SDS011;60395;52.020;113.548;2024-03-08T09:08:50;17.63;;;7.75;;
72404;SDS011;60395;52.020;113.548;2024-03-08T09:11:54;25.35;;;9.30;;
72404;SDS011;60395;52.020;113.548;2024-03-08T09:14:57;36.78;;;16.23;;
72404;SDS011;60395;52.020;113.548;2024-03-08T09:18:02;25.00;;;12.10;;
72404;SDS011;60395;52.020;113.548;2024-03-08T09:21:07;27.42;;;9.85;;
72404;SDS011;60395;52.020;113.548;2024-03-08T09:24:16;28.70;;;11.05;;
72404;SDS011;60395;52.020;113.548;2024-03-08T09:27:19;34.47;;;10.98;;
72404;SDS011;60395;52.020;113.548;2024-03-08T09:30:23;29.00;;;10.48;;
72404;SDS011;60395;52.020;113.548;2024-03-08T09:33:27;62.17;;;20.97;;
72404;SDS011;60395;52.020;113.548;2024-03-08T09:36:37;51.88;;;19.65;;
72404;SDS011;60395;52.020;113.548;2024-03-08T09:39:40;57.25;;;20.08;;
72404;SDS011;60395;52.020;113.548;2024-03-08T09:42:44;48.50;;;16.52;;
72404;SDS011;60395;52.020;113.548;2024-03-08T09:45:47;54.67;;;13.20;;
72404;SDS011;60395;52.020;113.548;2024-03-08T09:48:54;46.22;;;14.70;;
72404;SDS011;60395;52.020;113.548;2024-03-08T09:51:58;40.78;;;14.57;;
72404;SDS011;60395;52.020;113.548;2024-03-08T09:55:04;38.88;;;12.02;;
72404;SDS011;60395;52.020;113.548;2024-03-08T09:58:14;23.80;;;9.25;;
72404;SDS011;60395;52.020;113.548;2024-03-08T10:01:28;36.45;;;12.77;;
72404;SDS011;60395;52.020;113.548;2024-03-08T10:04:32;40.25;;;13.27;;
72404;SDS011;60395;52.020;113.548;2024-03-08T10:07:35;32.08;;;9.70;;
72404;SDS011;60395;52.020;113.548;2024-03-08T10:10:45;26.08;;;9.02;;
72404;SDS011;60395;52.020;113.548;2024-03-08T10:13:50;20.95;;;9.27;;
72404;SDS011;60395;52.020;113.548;2024-03-08T10:16:59;22.58;;;8.02;;
72404;SDS011;60395;52.020;113.548;2024-03-08T10:20:03;28.52;;;8.23;;
72404;SDS011;60395;52.020;113.548;2024-03-08T10:23:17;28.77;;;8.43;;
72404;SDS011;60395;52.020;113.548;2024-03-08T10:26:22;17.23;;;6.18;;
72404;SDS011;60395;52.020;113.548;2024-03-08T10:29:26;22.30;;;9.93;;
72404;SDS011;60395;52.020;113.548;2024-03-08T10:32:32;23.05;;;8.63;;
72404;SDS011;60395;52.020;113.548;2024-03-08T10:35:36;24.70;;;8.27;;
72404;SDS011;60395;52.020;113.548;2024-03-08T10:38:40;18.52;;;7.65;;
72404;SDS011;60395;52.020;113.548;2024-03-08T10:41:56;30.60;;;8.93;;
72404;SDS011;60395;52.020;113.548;2024-03-08T10:48:30;18.03;;;6.23;;
72404;SDS011;60395;52.020;113.548;2024-03-08T10:51:40;20.38;;;6.93;;
72404;SDS011;60395;52.020;113.548;2024-03-08T10:54:46;18.58;;;7.15;;
72404;SDS011;60395;52.020;113.548;2024-03-08T10:57:52;19.17;;;7.53;;
72404;SDS011;60395;52.020;113.548;2024-03-08T11:00:57;24.75;;;8.00;;
72404;SDS011;60395;52.020;113.548;2024-03-08T11:04:03;21.07;;;7.30;;
72404;SDS011;60395;52.020;113.548;2024-03-08T11:07:07;20.70;;;7.60;;
72404;SDS011;60395;52.020;113.548;2024-03-08T11:10:21;20.00;;;7.22;;
72404;SDS011;60395;52.020;113.548;2024-03-08T11:13:34;22.70;;;6.40;;
72404;SDS011;60395;52.020;113.548;2024-03-08T11:16:48;13.52;;;5.35;;
72404;SDS011;60395;52.020;113.548;2024-03-08T11:19:55;13.43;;;4.53;;
72404;SDS011;60395;52.020;113.548;2024-03-08T11:23:03;17.98;;;3.78;;
72404;SDS011;60395;52.020;113.548;2024-03-08T11:26:18;15.68;;;5.13;;
72404;SDS011;60395;52.020;113.548;2024-03-08T11:32:39;25.77;;;6.60;;
72404;SDS011;60395;52.020;113.548;2024-03-08T11:35:49;25.15;;;8.13;;
72404;SDS011;60395;52.020;113.548;2024-03-08T11:38:52;20.95;;;7.50;;
72404;SDS011;60395;52.020;113.548;2024-03-08T11:41:58;32.08;;;8.00;;
72404;SDS011;60395;52.020;113.548;2024-03-08T11:45:07;23.60;;;8.77;;
72404;SDS011;60395;52.020;113.548;2024-03-08T11:48:14;20.73;;;7.93;;
72404;SDS011;60395;52.020;113.548;2024-03-08T11:51:17;18.90;;;7.28;;
72404;SDS011;60395;52.020;113.548;2024-03-08T11:54:21;24.13;;;8.13;;
72404;SDS011;60395;52.020;113.548;2024-03-08T11:57:28;20.75;;;7.53;;
72404;SDS011;60395;52.020;113.548;2024-03-08T12:00:32;20.80;;;6.45;;
72404;SDS011;60395;52.020;113.548;2024-03-08T12:03:41;15.45;;;5.10;;
72404;SDS011;60395;52.020;113.548;2024-03-08T12:06:47;16.33;;;5.88;;
72404;SDS011;60395;52.020;113.548;2024-03-08T12:13:28;16.02;;;7.05;;
72404;SDS011;60395;52.020;113.548;2024-03-08T12:16:36;18.88;;;7.03;;
72404;SDS011;60395;52.020;113.548;2024-03-08T12:19:45;18.60;;;7.00;;
72404;SDS011;60395;52.020;113.548;2024-03-08T12:22:50;16.35;;;6.05;;
72404;SDS011;60395;52.020;113.548;2024-03-08T12:26:10;13.00;;;4.97;;
72404;SDS011;60395;52.020;113.548;2024-03-08T12:29:19;12.88;;;5.63;;
72404;SDS011;60395;52.020;113.548;2024-03-08T12:32:25;12.02;;;4.28;;
72404;SDS011;60395;52.020;113.548;2024-03-08T12:35:29;11.80;;;3.90;;
72404;SDS011;60395;52.020;113.548;2024-03-08T12:38:35;12.35;;;4.40;;
72404;SDS011;60395;52.020;113.548;2024-03-08T12:44:44;8.85;;;3.78;;
72404;SDS011;60395;52.020;113.548;2024-03-08T12:47:53;8.20;;;3.80;;
72404;SDS011;60395;52.020;113.548;2024-03-08T12:50:57;6.30;;;3.20;;
72404;SDS011;60395;52.020;113.548;2024-03-08T12:54:04;8.15;;;3.08;;
72404;SDS011;60395;52.020;113.548;2024-03-08T12:57:11;9.85;;;3.65;;
72404;SDS011;60395;52.020;113.548;2024-03-08T13:00:15;12.35;;;3.45;;
72404;SDS011;60395;52.020;113.548;2024-03-08T13:03:21;10.02;;;3.60;;
72404;SDS011;60395;52.020;113.548;2024-03-08T13:06:26;12.05;;;3.63;;
72404;SDS011;60395;52.020;113.548;2024-03-08T13:12:35;12.07;;;3.92;;
72404;SDS011;60395;52.020;113.548;2024-03-08T13:15:40;5.45;;;3.08;;
72404;SDS011;60395;52.020;113.548;2024-03-08T13:18:45;9.50;;;3.55;;
72404;SDS011;60395;52.020;113.548;2024-03-08T13:21:56;8.27;;;3.05;;
72404;SDS011;60395;52.020;113.548;2024-03-08T13:24:59;8.10;;;3.27;;
72404;SDS011;60395;52.020;113.548;2024-03-08T13:28:08;16.45;;;5.20;;
72404;SDS011;60395;52.020;113.548;2024-03-08T13:31:12;21.30;;;5.43;;
72404;SDS011;60395;52.020;113.548;2024-03-08T13:34:17;9.40;;;4.32;;
72404;SDS011;60395;52.020;113.548;2024-03-08T13:37:21;17.95;;;6.00;;
72404;SDS011;60395;52.020;113.548;2024-03-08T13:40:25;8.13;;;3.30;;
72404;SDS011;60395;52.020;113.548;2024-03-08T13:43:28;8.07;;;2.97;;
72404;SDS011;60395;52.020;113.548;2024-03-08T13:46:35;8.50;;;3.83;;
72404;SDS011;60395;52.020;113.548;2024-03-08T13:52:43;17.83;;;6.53;;
72404;SDS011;60395;52.020;113.548;2024-03-08T13:55:47;13.25;;;6.15;;
72404;SDS011;60395;52.020;113.548;2024-03-08T13:58:50;9.10;;;4.05;;
72404;SDS011;60395;52.020;113.548;2024-03-08T14:01:54;8.60;;;3.47;;
72404;SDS011;60395;52.020;113.548;2024-03-08T14:04:59;11.38;;;4.18;;
72404;SDS011;60395;52.020;113.548;2024-03-08T14:08:06;23.67;;;6.35;;
72404;SDS011;60395;52.020;113.548;2024-03-08T14:11:10;29.88;;;10.20;;
72404;SDS011;60395;52.020;113.548;2024-03-08T14:14:15;58.85;;;20.10;;
72404;SDS011;60395;52.020;113.548;2024-03-08T14:17:20;36.33;;;14.95;;
72404;SDS011;60395;52.020;113.548;2024-03-08T14:20:23;34.75;;;13.38;;
72404;SDS011;60395;52.020;113.548;2024-03-08T14:23:30;20.48;;;8.65;;
72404;SDS011;60395;52.020;113.548;2024-03-08T14:26:35;66.97;;;20.80;;
72404;SDS011;60395;52.020;113.548;2024-03-08T14:29:41;44.17;;;17.40;;
72404;SDS011;60395;52.020;113.548;2024-03-08T14:32:46;34.45;;;13.45;;
72404;SDS011;60395;52.020;113.548;2024-03-08T14:35:49;96.45;;;31.48;;
72404;SDS011;60395;52.020;113.548;2024-03-08T14:38:53;82.30;;;27.67;;
72404;SDS011;60395;52.020;113.548;2024-03-08T14:41:56;58.03;;;23.80;;
72404;SDS011;60395;52.020;113.548;2024-03-08T14:45:00;42.33;;;17.92;;
72404;SDS011;60395;52.020;113.548;2024-03-08T14:48:04;45.33;;;21.10;;
72404;SDS011;60395;52.020;113.548;2024-03-08T14:51:08;32.72;;;12.85;;
72404;SDS011;60395;52.020;113.548;2024-03-08T14:54:14;18.98;;;9.73;;
72404;SDS011;60395;52.020;113.548;2024-03-08T14:57:17;38.15;;;15.10;;
72404;SDS011;60395;52.020;113.548;2024-03-08T15:00:20;20.17;;;8.50;;
72404;SDS011;60395;52.020;113.548;2024-03-08T15:03:36;14.77;;;6.93;;
72404;SDS011;60395;52.020;113.548;2024-03-08T15:06:40;19.83;;;7.65;;
72404;SDS011;60395;52.020;113.548;2024-03-08T15:09:45;29.75;;;8.32;;
72404;SDS011;60395;52.020;113.548;2024-03-08T15:12:49;14.23;;;6.50;;
72404;SDS011;60395;52.020;113.548;2024-03-08T15:15:58;18.92;;;6.63;;
72404;SDS011;60395;52.020;113.548;2024-03-08T15:19:10;15.75;;;6.43;;
72404;SDS011;60395;52.020;113.548;2024-03-08T15:22:15;22.50;;;8.80;;
72404;SDS011;60395;52.020;113.548;2024-03-08T15:25:20;21.95;;;8.45;;
72404;SDS011;60395;52.020;113.548;2024-03-08T15:28:28;33.00;;;12.15;;
72404;SDS011;60395;52.020;113.548;2024-03-08T15:31:39;35.80;;;12.90;;
72404;SDS011;60395;52.020;113.548;2024-03-08T15:34:47;29.25;;;10.98;;
72404;SDS011;60395;52.020;113.548;2024-03-08T15:37:50;34.63;;;12.23;;
72404;SDS011;60395;52.020;113.548;2024-03-08T15:40:55;32.95;;;12.00;;
72404;SDS011;60395;52.020;113.548;2024-03-08T15:43:59;32.83;;;12.33;;
72404;SDS011;60395;52.020;113.548;2024-03-08T15:47:02;43.97;;;16.25;;
72404;SDS011;60395;52.020;113.548;2024-03-08T15:50:06;73.35;;;22.92;;
72404;SDS011;60395;52.020;113.548;2024-03-08T15:53:14;58.80;;;19.75;;
72404;SDS011;60395;52.020;113.548;2024-03-08T15:56:18;59.25;;;20.27;;
72404;SDS011;60395;52.020;113.548;2024-03-08T15:59:28;78.68;;;27.45;;
72404;SDS011;60395;52.020;113.548;2024-03-08T16:02:34;92.05;;;30.95;;
72404;SDS011;60395;52.020;113.548;2024-03-08T16:05:38;78.97;;;26.15;;
72404;SDS011;60395;52.020;113.548;2024-03-08T16:08:43;63.35;;;22.98;;
72404;SDS011;60395;52.020;113.548;2024-03-08T16:11:47;53.28;;;18.35;;
72404;SDS011;60395;52.020;113.548;2024-03-08T16:14:51;33.30;;;12.15;;
72404;SDS011;60395;52.020;113.548;2024-03-08T16:17:54;27.05;;;8.07;;
72404;SDS011;60395;52.020;113.548;2024-03-08T16:20:58;18.63;;;7.95;;
72404;SDS011;60395;52.020;113.548;2024-03-08T16:24:02;14.73;;;6.83;;
72404;SDS011;60395;52.020;113.548;2024-03-08T16:27:06;20.13;;;6.07;;
72404;SDS011;60395;52.020;113.548;2024-03-08T16:30:09;20.15;;;8.20;;
72404;SDS011;60395;52.020;113.548;2024-03-08T16:33:18;19.92;;;7.10;;
72404;SDS011;60395;52.020;113.548;2024-03-08T16:36:21;23.63;;;9.35;;
72404;SDS011;60395;52.020;113.548;2024-03-08T16:39:25;43.08;;;13.40;;
72404;SDS011;60395;52.020;113.548;2024-03-08T16:42:31;28.45;;;10.43;;
72404;SDS011;60395;52.020;113.548;2024-03-08T16:45:35;40.13;;;13.20;;
72404;SDS011;60395;52.020;113.548;2024-03-08T16:48:38;34.28;;;10.15;;
72404;SDS011;60395;52.020;113.548;2024-03-08T16:51:42;15.60;;;6.20;;
72404;SDS011;60395;52.020;113.548;2024-03-08T16:54:45;14.80;;;7.13;;
72404;SDS011;60395;52.020;113.548;2024-03-08T16:58:02;27.48;;;10.65;;
72404;SDS011;60395;52.020;113.548;2024-03-08T17:01:07;43.28;;;16.15;;
72404;SDS011;60395;52.020;113.548;2024-03-08T17:07:15;34.08;;;11.38;;
72404;SDS011;60395;52.020;113.548;2024-03-08T17:10:18;20.95;;;7.57;;
72404;SDS011;60395;52.020;113.548;2024-03-08T17:13:22;19.52;;;6.47;;
72404;SDS011;60395;52.020;113.548;2024-03-08T17:16:26;24.10;;;8.60;;
72404;SDS011;60395;52.020;113.548;2024-03-08T17:19:30;15.55;;;5.90;;
72404;SDS011;60395;52.020;113.548;2024-03-08T17:22:33;22.02;;;7.78;;
72404;SDS011;60395;52.020;113.548;2024-03-08T17:25:37;21.00;;;7.50;;
72404;SDS011;60395;52.020;113.548;2024-03-08T17:28:42;21.13;;;7.47;;
72404;SDS011;60395;52.020;113.548;2024-03-08T17:31:46;26.23;;;8.33;;
72404;SDS011;60395;52.020;113.548;2024-03-08T17:34:51;32.92;;;13.77;;
72404;SDS011;60395;52.020;113.548;2024-03-08T17:37:55;68.95;;;20.88;;
72404;SDS011;60395;52.020;113.548;2024-03-08T17:41:00;68.47;;;20.23;;
72404;SDS011;60395;52.020;113.548;2024-03-08T17:44:04;17.15;;;7.70;;
72404;SDS011;60395;52.020;113.548;2024-03-08T17:47:07;14.13;;;6.03;;
72404;SDS011;60395;52.020;113.548;2024-03-08T17:50:11;18.27;;;6.10;;
72404;SDS011;60395;52.020;113.548;2024-03-08T17:53:17;40.53;;;13.85;;
72404;SDS011;60395;52.020;113.548;2024-03-08T17:56:23;55.80;;;18.13;;
72404;SDS011;60395;52.020;113.548;2024-03-08T17:59:26;60.35;;;19.10;;
72404;SDS011;60395;52.020;113.548;2024-03-08T18:02:30;53.90;;;18.55;;
72404;SDS011;60395;52.020;113.548;2024-03-08T18:05:34;27.60;;;9.02;;
72404;SDS011;60395;52.020;113.548;2024-03-08T18:08:39;15.25;;;6.20;;
72404;SDS011;60395;52.020;113.548;2024-03-08T18:11:45;7.38;;;3.80;;
72404;SDS011;60395;52.020;113.548;2024-03-08T18:14:48;19.83;;;6.65;;
72404;SDS011;60395;52.020;113.548;2024-03-08T18:17:52;41.35;;;14.43;;